Time;durP1;ratioP1;P1;durP2;ratioP2;P2;SDS_P1;SDS_P2;PMS_P1;PMS_P2;Temp;Humidity;BMP_temperature;BMP_pressure;BME280_temperature;BME280_humidity;BME280_pressure;Samples;Min_cycle;Max_cycle;Signal;HPM_P1;HPM_P2
2022/06/01 00:00:21;;;;;;;17.85;16.15;;;11.30;99.90;;;;;;5039790;28;20108;-62
2022/06/01 00:02:46;;;;;;;15.00;13.18;;;11.30;99.90;;;;;;5037193;28;20035;-62
2022/06/01 00:05:12;;;;;;;14.57;13.07;;;11.30;99.90;;;;;;5042643;28;20026;-62
2022/06/01 00:07:38;;;;;;;17.75;15.73;;;11.30;99.90;;;;;;5037018;28;20533;-62
2022/06/01 00:10:04;;;;;;;15.73;14.10;;;11.30;99.90;;;;;;5035608;28;20030;-62
2022/06/01 00:12:30;;;;;;;12.65;11.38;;;11.30;99.90;;;;;;5038479;28;20021;-62
2022/06/01 00:14:56;;;;;;;10.75;9.65;;;11.40;99.90;;;;;;5036994;28;20021;-62
2022/06/01 00:17:23;;;;;;;11.90;10.80;;;11.40;99.90;;;;;;5040281;28;20405;-62
2022/06/01 00:19:49;;;;;;;13.80;12.40;;;11.40;99.90;;;;;;5038521;28;20618;-62
2022/06/01 00:22:15;;;;;;;13.98;12.57;;;11.40;99.90;;;;;;5032064;28;20412;-62
2022/06/01 00:24:44;;;;;;;14.60;13.20;;;11.30;99.90;;;;;;5039369;28;20040;-62
2022/06/01 00:27:11;;;;;;;17.40;15.60;;;11.30;99.90;;;;;;5034101;28;20025;-62
2022/06/01 00:29:38;;;;;;;17.25;15.43;;;11.20;99.90;;;;;;5037964;28;20017;-62
2022/06/01 00:32:05;;;;;;;17.88;16.13;;;11.20;99.90;;;;;;5054510;28;20103;-62
2022/06/01 00:34:32;;;;;;;14.60;13.07;;;11.10;99.90;;;;;;5029765;28;20087;-62
2022/06/01 00:36:57;;;;;;;14.85;13.32;;;11.10;99.90;;;;;;5035670;28;20034;-62
2022/06/01 00:39:23;;;;;;;16.25;14.55;;;11.10;99.90;;;;;;5030968;28;20036;-62
2022/06/01 00:41:49;;;;;;;15.98;14.13;;;11.10;99.90;;;;;;5033739;28;20427;-62
2022/06/01 00:44:15;;;;;;;13.27;11.98;;;11.10;99.90;;;;;;5035331;28;20021;-62
2022/06/01 00:46:41;;;;;;;11.02;9.93;;;11.10;99.90;;;;;;5036382;28;20013;-62
2022/06/01 00:49:17;;;;;;;10.77;9.68;;;11.20;99.90;;;;;;5037526;28;20057;-62
2022/06/01 00:51:44;;;;;;;10.00;9.00;;;11.20;99.90;;;;;;5033095;28;20045;-62
2022/06/01 00:54:11;;;;;;;8.88;7.97;;;11.30;99.90;;;;;;5033182;28;20057;-62
2022/06/01 00:56:42;;;;;;;9.60;7.72;;;11.30;99.90;;;;;;5042759;28;20036;-62
2022/06/01 00:59:12;;;;;;;9.35;8.45;;;11.40;99.90;;;;;;5036945;28;20104;-62
2022/06/01 01:01:38;;;;;;;14.20;12.68;;;11.40;99.80;;;;;;5039199;28;20036;-62
2022/06/01 01:04:04;;;;;;;13.63;12.25;;;11.40;99.70;;;;;;5033216;28;20495;-62
2022/06/01 01:06:35;;;;;;;12.82;11.55;;;11.50;99.50;;;;;;5033334;28;20033;-62
2022/06/01 01:09:02;;;;;;;13.82;11.88;;;11.50;99.40;;;;;;5039342;28;20651;-62
2022/06/01 01:11:52;;;;;;;12.05;10.88;;;11.60;99.30;;;;;;5034257;28;20029;-62
2022/06/01 01:14:22;;;;;;;10.98;9.88;;;11.60;99.20;;;;;;5035612;28;20540;-62
2022/06/01 01:16:49;;;;;;;9.65;8.65;;;11.60;99.10;;;;;;5030277;28;20117;-62
2022/06/01 01:19:46;;;;;;;8.07;7.28;;;11.60;99.00;;;;;;5031344;28;20535;-62
2022/06/01 01:22:32;;;;;;;8.07;7.28;;;11.70;98.80;;;;;;5038617;28;20067;-62
2022/06/01 01:25:18;;;;;;;6.85;6.10;;;11.70;98.70;;;;;;5038780;28;20021;-62
2022/06/01 01:27:45;;;;;;;7.03;5.82;;;11.70;98.70;;;;;;5034881;28;20033;-62
2022/06/01 01:30:38;;;;;;;6.80;6.00;;;11.70;98.60;;;;;;5031681;28;20025;-62
2022/06/01 01:33:07;;;;;;;6.07;5.13;;;11.80;98.40;;;;;;5035388;28;20033;-62
2022/06/01 01:35:32;;;;;;;5.57;5.07;;;11.70;98.40;;;;;;5043750;28;20025;-62
2022/06/01 01:38:02;;;;;;;5.85;5.22;;;11.80;98.40;;;;;;5048092;28;20645;-62
2022/06/01 01:40:28;;;;;;;6.43;5.13;;;11.80;98.30;;;;;;5036287;28;20028;-62
2022/06/01 01:42:57;;;;;;;5.50;5.00;;;11.80;98.30;;;;;;5029791;28;20033;-62
2022/06/01 01:45:29;;;;;;;4.97;4.47;;;11.70;98.20;;;;;;5038248;28;20014;-62
2022/06/01 01:47:55;;;;;;;4.65;4.18;;;11.80;98.20;;;;;;5035470;28;20060;-62
2022/06/01 01:50:22;;;;;;;4.05;3.65;;;11.70;98.20;;;;;;5036355;28;20481;-62
2022/06/01 01:52:49;;;;;;;4.32;3.92;;;11.80;98.20;;;;;;5033932;28;20041;-62
2022/06/01 01:55:33;;;;;;;4.25;3.85;;;11.80;98.10;;;;;;5038334;28;20489;-62
2022/06/01 01:58:16;;;;;;;4.13;3.42;;;11.80;97.90;;;;;;5043946;28;20515;-62
2022/06/01 02:00:52;;;;;;;4.20;3.80;;;11.80;98.00;;;;;;5049121;28;20023;-62
2022/06/01 02:03:32;;;;;;;4.03;3.63;;;11.80;97.90;;;;;;5038762;28;20017;-62
2022/06/01 02:06:17;;;;;;;5.43;3.33;;;11.90;97.90;;;;;;5039872;28;20445;-62
2022/06/01 02:08:54;;;;;;;3.55;3.08;;;11.80;97.80;;;;;;5044622;28;20033;-62
2022/06/01 02:14:29;;;;;;;3.83;2.90;;;11.80;97.70;;;;;;5031219;28;20122;-62
2022/06/01 02:17:02;;;;;;;2.63;2.42;;;11.80;97.70;;;;;;5034450;28;20341;-62
2022/06/01 02:19:41;;;;;;;4.38;3.40;;;11.80;97.70;;;;;;5035571;28;20033;-63
2022/06/01 02:22:08;;;;;;;4.15;3.58;;;11.80;97.70;;;;;;5049717;28;20070;-62
2022/06/01 02:24:34;;;;;;;5.75;5.20;;;11.70;97.70;;;;;;5035687;28;20017;-62
2022/06/01 02:27:00;;;;;;;6.57;5.88;;;11.60;97.90;;;;;;5039929;28;20029;-63
2022/06/01 02:29:32;;;;;;;7.53;5.88;;;11.50;98.20;;;;;;5033458;28;20540;-62
2022/06/01 02:31:59;;;;;;;6.03;5.20;;;11.50;98.40;;;;;;5033861;28;20033;-62
2022/06/01 02:34:25;;;;;;;5.15;4.65;;;11.50;98.50;;;;;;5039005;28;20032;-62
2022/06/01 02:36:51;;;;;;;5.78;5.25;;;11.50;98.50;;;;;;5037180;28;20492;-62
2022/06/01 02:39:17;;;;;;;5.85;5.25;;;11.50;98.50;;;;;;5037302;28;20029;-62
2022/06/01 02:44:27;;;;;;;5.03;4.30;;;11.40;98.60;;;;;;5033810;28;20028;-62
2022/06/01 02:46:53;;;;;;;4.72;4.18;;;11.40;98.70;;;;;;5034219;28;20026;-62
2022/06/01 02:49:18;;;;;;;5.22;4.45;;;11.50;98.70;;;;;;5034762;28;20022;-62
2022/06/01 02:51:45;;;;;;;8.07;6.35;;;11.50;98.70;;;;;;5039475;28;20049;-62
2022/06/01 02:54:11;;;;;;;8.18;7.38;;;11.40;99.00;;;;;;5031099;28;20033;-62
2022/06/01 02:56:36;;;;;;;13.82;9.60;;;11.40;99.50;;;;;;5036957;28;20029;-62
2022/06/01 02:59:02;;;;;;;12.98;10.88;;;11.20;99.90;;;;;;5026555;28;20021;-62
2022/06/01 03:01:28;;;;;;;11.45;10.32;;;11.10;99.90;;;;;;5034219;28;20025;-62
2022/06/01 03:03:53;;;;;;;14.82;13.25;;;11.10;99.90;;;;;;5032682;28;20025;-62
2022/06/01 03:06:19;;;;;;;17.10;15.38;;;11.00;99.90;;;;;;5028932;28;20075;-62
2022/06/01 03:08:45;;;;;;;18.35;16.45;;;10.90;99.90;;;;;;5036417;28;20160;-62
2022/06/01 03:11:12;;;;;;;18.42;16.23;;;10.90;99.90;;;;;;5032672;28;20017;-62
2022/06/01 03:13:38;;;;;;;20.25;18.15;;;10.80;99.90;;;;;;5033817;28;20068;-62
2022/06/01 03:16:04;;;;;;;21.30;19.02;;;10.70;99.90;;;;;;5034440;28;20025;-62
2022/06/01 03:18:31;;;;;;;22.20;19.65;;;10.70;99.90;;;;;;5028350;28;20037;-62
2022/06/01 03:20:58;;;;;;;21.90;19.65;;;10.60;99.90;;;;;;5037155;28;20029;-62
2022/06/01 03:23:24;;;;;;;23.10;20.40;;;10.70;99.90;;;;;;5039208;28;20440;-62
2022/06/01 03:25:50;;;;;;;23.67;21.15;;;10.60;99.90;;;;;;5030877;28;20092;-62
2022/06/01 03:28:16;;;;;;;26.50;23.88;;;10.60;99.90;;;;;;5029720;28;20013;-62
2022/06/01 03:30:43;;;;;;;27.75;24.95;;;10.60;99.90;;;;;;5032647;28;20104;-62
2022/06/01 03:33:10;;;;;;;25.98;23.17;;;10.60;99.90;;;;;;5030208;28;20097;-62
2022/06/01 03:35:37;;;;;;;28.65;25.45;;;10.60;99.90;;;;;;5039477;28;20808;-62
2022/06/01 03:38:03;;;;;;;26.58;23.85;;;10.60;99.90;;;;;;5034149;28;20367;-62
2022/06/01 03:40:31;;;;;;;28.73;25.55;;;10.70;99.90;;;;;;5033891;28;20075;-62
2022/06/01 03:42:57;;;;;;;26.95;24.15;;;10.70;99.90;;;;;;5030790;28;20056;-62
2022/06/01 03:48:08;;;;;;;22.27;19.98;;;10.70;99.90;;;;;;5028450;28;20496;-62
2022/06/01 03:50:35;;;;;;;24.08;21.13;;;10.80;99.90;;;;;;5035465;28;20466;-62
2022/06/01 03:53:02;;;;;;;24.63;21.92;;;10.80;99.90;;;;;;5030832;28;20049;-62
2022/06/01 03:55:28;;;;;;;25.88;23.17;;;10.80;99.90;;;;;;5033718;28;20481;-62
2022/06/01 03:57:55;;;;;;;27.70;24.58;;;10.80;99.90;;;;;;5033159;28;20030;-62
2022/06/01 04:00:25;;;;;;;26.52;23.33;;;10.80;99.90;;;;;;5029583;28;20033;-62
2022/06/01 04:02:51;;;;;;;28.30;24.85;;;10.80;99.90;;;;;;5027946;28;20022;-62
2022/06/01 04:05:17;;;;;;;27.55;24.55;;;10.80;99.90;;;;;;5038980;28;20036;-62
2022/06/01 04:07:43;;;;;;;24.83;22.17;;;10.80;99.90;;;;;;5030943;28;20021;-62
2022/06/01 04:10:09;;;;;;;28.65;25.55;;;10.80;99.90;;;;;;5034030;28;20595;-62
2022/06/01 04:12:35;;;;;;;28.60;25.55;;;10.80;99.90;;;;;;5038227;28;20033;-62
2022/06/01 04:15:01;;;;;;;28.23;24.73;;;10.80;99.90;;;;;;5034418;28;20029;-62
2022/06/01 04:17:27;;;;;;;25.98;21.95;;;10.90;99.90;;;;;;5035230;28;20029;-62
2022/06/01 04:19:52;;;;;;;21.85;19.63;;;10.80;99.90;;;;;;5038833;28;20032;-62
2022/06/01 04:22:19;;;;;;;25.67;22.70;;;10.90;99.90;;;;;;5033927;28;20026;-62
2022/06/01 04:24:45;;;;;;;23.30;20.80;;;10.90;99.90;;;;;;5034738;28;20025;-62
2022/06/01 04:27:11;;;;;;;22.15;19.63;;;10.90;99.90;;;;;;5034057;28;20029;-62
2022/06/01 04:29:37;;;;;;;26.40;22.95;;;11.00;99.90;;;;;;5045156;28;20025;-62
2022/06/01 04:32:15;;;;;;;22.17;19.83;;;11.00;99.90;;;;;;5052282;28;20496;-62
2022/06/01 04:34:41;;;;;;;19.23;17.17;;;11.10;99.90;;;;;;5052412;28;20028;-62
2022/06/01 04:37:07;;;;;;;19.63;16.27;;;11.10;99.90;;;;;;5049056;28;20493;-62
2022/06/01 04:39:33;;;;;;;17.58;15.77;;;11.10;99.90;;;;;;5034934;28;20511;-62
2022/06/01 04:41:59;;;;;;;17.40;15.60;;;11.20;99.90;;;;;;5034965;28;20104;-62
2022/06/01 04:44:25;;;;;;;19.65;17.00;;;11.20;99.90;;;;;;5034086;28;20053;-62
2022/06/01 04:46:50;;;;;;;20.35;18.17;;;11.30;99.90;;;;;;5053187;28;20469;-62
2022/06/01 04:49:16;;;;;;;20.38;17.85;;;11.40;99.90;;;;;;5041099;28;20040;-62
2022/06/01 04:51:41;;;;;;;19.55;17.02;;;11.40;99.90;;;;;;5041458;28;20052;-62
2022/06/01 04:54:07;;;;;;;19.13;17.08;;;11.40;99.90;;;;;;5052726;28;20035;-62
2022/06/01 04:56:34;;;;;;;18.67;15.80;;;11.40;99.90;;;;;;5052396;28;20389;-62
2022/06/01 04:58:59;;;;;;;25.85;21.20;;;11.40;99.90;;;;;;5052040;28;20442;-62
2022/06/01 05:01:25;;;;;;;24.02;20.88;;;11.40;99.90;;;;;;5038185;28;20025;-62
2022/06/01 05:03:51;;;;;;;21.42;19.23;;;11.30;99.90;;;;;;5035507;28;20060;-62
2022/06/01 05:06:17;;;;;;;19.27;17.23;;;11.30;99.90;;;;;;5046910;28;20074;-62
2022/06/01 05:08:42;;;;;;;21.10;18.17;;;11.30;99.90;;;;;;5034197;28;20021;-62
2022/06/01 05:11:08;;;;;;;22.85;18.58;;;11.30;99.90;;;;;;5048862;28;20029;-62
2022/06/01 05:13:34;;;;;;;23.25;20.88;;;11.30;99.90;;;;;;5053625;28;20021;-62
2022/06/01 05:16:04;;;;;;;24.73;22.02;;;11.30;99.90;;;;;;5044478;28;20037;-62
2022/06/01 05:18:30;;;;;;;24.60;20.58;;;11.30;99.90;;;;;;5039931;28;20020;-62
2022/06/01 05:20:56;;;;;;;19.45;17.13;;;11.30;99.90;;;;;;5050540;28;20480;-62
2022/06/01 05:23:23;;;;;;;18.95;15.40;;;11.20;99.90;;;;;;5044124;28;20485;-62
2022/06/01 05:25:50;;;;;;;18.40;15.48;;;11.30;99.90;;;;;;5043372;28;20022;-62
2022/06/01 05:28:19;;;;;;;18.50;15.27;;;11.30;99.90;;;;;;5040531;28;20078;-62
2022/06/01 05:30:45;;;;;;;20.52;18.35;;;11.30;99.90;;;;;;5046508;28;20032;-62
2022/06/01 05:33:10;;;;;;;20.00;17.17;;;11.30;99.90;;;;;;5050287;28;20037;-62
2022/06/01 05:35:36;;;;;;;24.67;21.40;;;11.40;99.90;;;;;;5049967;28;20389;-62
2022/06/01 05:38:02;;;;;;;24.55;20.67;;;11.30;99.90;;;;;;5050236;28;20403;-62
2022/06/01 05:40:30;;;;;;;21.08;18.85;;;11.30;99.90;;;;;;5046847;28;20037;-63
2022/06/01 05:42:58;;;;;;;21.15;16.98;;;11.40;99.90;;;;;;5046881;28;20079;-62
2022/06/01 05:45:24;;;;;;;24.85;20.45;;;11.40;99.90;;;;;;5047995;28;20025;-62
2022/06/01 05:47:50;;;;;;;21.63;18.92;;;11.40;99.90;;;;;;5052966;28;20017;-62
2022/06/01 05:50:16;;;;;;;20.75;16.95;;;11.50;99.90;;;;;;5042946;28;20025;-62
2022/06/01 05:52:42;;;;;;;21.13;18.95;;;11.50;99.90;;;;;;5031426;28;20510;-62
2022/06/01 05:55:12;;;;;;;19.60;16.25;;;11.60;99.90;;;;;;5033330;28;20029;-62
2022/06/01 05:57:38;;;;;;;17.13;15.30;;;11.70;99.90;;;;;;5050262;28;20087;-62
2022/06/01 06:00:06;;;;;;;17.02;14.57;;;11.70;99.90;;;;;;5052846;28;20053;-62
2022/06/01 06:02:31;;;;;;;16.85;14.40;;;11.80;99.90;;;;;;5052490;28;20025;-62
2022/06/01 06:04:57;;;;;;;20.50;15.30;;;11.80;99.90;;;;;;5052605;28;20079;-62
2022/06/01 06:07:22;;;;;;;16.27;14.18;;;11.90;99.90;;;;;;5051285;28;20021;-62
2022/06/01 06:09:48;;;;;;;19.38;13.60;;;11.90;99.90;;;;;;5043465;28;20025;-62
2022/06/01 06:12:13;;;;;;;17.10;15.00;;;12.00;99.90;;;;;;5047186;28;20021;-62
2022/06/01 06:14:39;;;;;;;18.67;14.88;;;12.00;99.90;;;;;;5051724;28;20029;-62
2022/06/01 06:17:05;;;;;;;15.07;12.65;;;12.10;99.90;;;;;;5035117;28;20021;-62
2022/06/01 06:19:30;;;;;;;17.55;14.65;;;12.10;99.90;;;;;;5049561;28;20028;-62
2022/06/01 06:21:56;;;;;;;14.45;12.63;;;12.20;99.90;;;;;;5032933;28;20033;-62
2022/06/01 06:24:22;;;;;;;17.60;13.90;;;12.30;99.90;;;;;;5040526;28;20017;-62
2022/06/01 06:26:48;;;;;;;15.80;13.02;;;12.30;99.90;;;;;;5052177;28;20013;-62
2022/06/01 06:29:17;;;;;;;14.80;13.30;;;12.30;99.90;;;;;;5046726;28;20025;-62
2022/06/01 06:31:43;;;;;;;16.05;12.57;;;12.40;99.90;;;;;;5046684;28;20036;-62
2022/06/01 06:34:09;;;;;;;14.70;12.73;;;12.40;99.90;;;;;;5035564;28;20382;-62
2022/06/01 06:36:35;;;;;;;12.75;11.48;;;12.50;99.90;;;;;;5050291;28;20331;-62
2022/06/01 06:39:00;;;;;;;13.93;12.27;;;12.60;99.90;;;;;;5045334;28;20071;-62
2022/06/01 06:41:26;;;;;;;17.50;13.65;;;12.60;99.90;;;;;;5048868;28;20025;-62
2022/06/01 06:43:52;;;;;;;12.82;11.50;;;12.70;99.90;;;;;;5043360;28;20453;-62
2022/06/01 06:46:21;;;;;;;12.18;10.50;;;12.70;99.90;;;;;;5044576;28;20047;-62
2022/06/01 06:48:50;;;;;;;12.18;10.60;;;12.80;99.90;;;;;;5046885;28;20504;-62
2022/06/01 06:51:18;;;;;;;12.13;10.00;;;12.80;99.90;;;;;;5043696;28;20029;-62
2022/06/01 06:53:44;;;;;;;9.60;8.57;;;12.90;99.90;;;;;;5048156;28;20040;-62
2022/06/01 06:56:11;;;;;;;10.55;8.48;;;13.00;99.90;;;;;;5049074;28;20651;-62
2022/06/01 06:58:37;;;;;;;12.75;9.48;;;13.00;99.90;;;;;;5049561;28;20017;-62
2022/06/01 07:01:03;;;;;;;9.73;8.65;;;13.10;99.80;;;;;;5048502;28;20223;-67
2022/06/01 07:03:28;;;;;;;9.98;8.23;;;13.20;99.70;;;;;;5051417;28;20025;-62
2022/06/01 07:06:11;;;;;;;10.20;8.80;;;13.30;99.50;;;;;;5051140;28;20083;-62
2022/06/01 07:08:42;;;;;;;10.73;8.20;;;13.40;99.30;;;;;;5047524;28;20044;-62
2022/06/01 07:11:09;;;;;;;10.82;8.02;;;13.50;99.00;;;;;;5044678;28;20086;-62
2022/06/01 07:13:35;;;;;;;12.13;8.82;;;13.60;98.80;;;;;;5031615;28;20052;-62
2022/06/01 07:16:12;;;;;;;11.02;7.82;;;13.70;98.70;;;;;;5035025;28;20025;-62
2022/06/01 07:18:39;;;;;;;10.43;6.68;;;13.90;98.40;;;;;;5051768;28;20476;-62
2022/06/01 07:21:06;;;;;;;8.50;6.32;;;14.10;98.20;;;;;;5040238;28;20477;-62
2022/06/01 07:23:32;;;;;;;8.13;6.97;;;14.20;97.90;;;;;;5037052;28;20025;-62
2022/06/01 07:25:57;;;;;;;7.25;6.55;;;14.30;97.50;;;;;;5039853;28;20022;-62
2022/06/01 07:28:24;;;;;;;7.45;5.63;;;14.40;97.20;;;;;;5037240;28;20393;-62
2022/06/01 07:30:59;;;;;;;6.32;5.57;;;14.40;96.90;;;;;;5036241;28;20392;-62
2022/06/01 07:33:28;;;;;;;7.30;5.55;;;14.40;96.50;;;;;;5038560;28;20423;-62
2022/06/01 07:35:54;;;;;;;7.03;4.95;;;14.40;96.20;;;;;;5038743;28;20020;-62
2022/06/01 07:43:52;;;;;;;5.70;4.22;;;14.50;95.60;;;;;;5032478;28;20036;-62
2022/06/01 07:46:18;;;;;;;5.07;3.85;;;14.60;95.30;;;;;;5034528;28;20029;-62
2022/06/01 07:48:44;;;;;;;5.57;3.85;;;14.70;95.00;;;;;;5036154;28;20030;-62
2022/06/01 07:51:10;;;;;;;4.75;3.53;;;14.80;94.80;;;;;;5048717;28;20018;-62
2022/06/01 07:53:35;;;;;;;4.97;3.10;;;14.80;94.50;;;;;;5035982;28;20050;-62
2022/06/01 07:56:01;;;;;;;3.50;3.03;;;15.00;94.40;;;;;;5047660;28;20040;-62
2022/06/01 07:58:27;;;;;;;4.90;3.33;;;15.20;94.00;;;;;;5035341;28;20033;-62
2022/06/01 08:00:52;;;;;;;3.85;3.15;;;15.30;93.50;;;;;;5035006;28;20028;-62
2022/06/01 08:03:18;;;;;;;3.72;3.08;;;15.50;93.20;;;;;;5035732;28;20032;-62
2022/06/01 08:05:44;;;;;;;4.28;3.20;;;15.60;92.80;;;;;;5050462;28;20029;-62
2022/06/01 08:08:09;;;;;;;3.55;2.63;;;15.70;92.30;;;;;;5050564;28;20547;-62
2022/06/01 08:10:36;;;;;;;4.68;3.13;;;15.70;92.00;;;;;;5035285;28;20087;-62
2022/06/01 08:13:06;;;;;;;5.15;3.35;;;15.80;91.70;;;;;;5047303;28;20378;-62
2022/06/01 08:15:37;;;;;;;3.50;2.45;;;15.80;91.10;;;;;;5035437;28;20025;-62
2022/06/01 08:18:03;;;;;;;4.28;2.78;;;15.80;90.90;;;;;;5038852;28;20051;-62
2022/06/01 08:20:30;;;;;;;4.07;3.00;;;15.80;90.40;;;;;;5042872;28;20029;-63
2022/06/01 08:22:56;;;;;;;4.07;2.90;;;15.90;90.20;;;;;;5049085;28;20025;-62
2022/06/01 08:25:23;;;;;;;5.22;3.40;;;15.90;90.10;;;;;;5049145;28;20017;-62
2022/06/01 08:27:49;;;;;;;5.70;3.40;;;16.00;89.60;;;;;;5046377;28;20025;-62
2022/06/01 08:30:17;;;;;;;6.07;4.22;;;16.00;89.50;;;;;;5053331;28;20549;-63
2022/06/01 08:32:43;;;;;;;5.30;3.90;;;16.10;88.80;;;;;;5051511;28;20035;-62
2022/06/01 08:35:11;;;;;;;3.40;3.05;;;16.10;89.10;;;;;;5046796;28;20032;-63
2022/06/01 08:37:37;;;;;;;4.43;3.40;;;16.20;89.20;;;;;;5050634;28;20025;-63
2022/06/01 08:40:05;;;;;;;4.88;3.28;;;16.30;89.10;;;;;;5049758;28;20029;-63
2022/06/01 08:42:33;;;;;;;3.17;2.65;;;16.30;88.20;;;;;;5048709;28;20021;-63
2022/06/01 08:45:04;;;;;;;3.80;2.95;;;16.50;88.10;;;;;;5049010;28;20029;-62
2022/06/01 08:47:38;;;;;;;3.75;3.35;;;16.70;86.70;;;;;;5050544;28;20020;-62
2022/06/01 08:50:10;;;;;;;5.90;2.95;;;16.80;85.90;;;;;;5047102;28;20027;-62
2022/06/01 08:52:36;;;;;;;3.38;2.63;;;16.90;84.60;;;;;;5048079;28;20056;-63
2022/06/01 08:55:02;;;;;;;3.97;2.03;;;16.90;83.30;;;;;;5049265;28;20393;-63
2022/06/01 08:57:36;;;;;;;3.05;1.88;;;17.00;82.50;;;;;;5047770;28;20551;-62
2022/06/01 09:00:06;;;;;;;3.25;2.50;;;17.20;82.40;;;;;;5050217;28;20029;-63
2022/06/01 09:02:54;;;;;;;2.95;2.47;;;17.20;81.90;;;;;;5052025;28;20457;-63
2022/06/01 09:05:30;;;;;;;4.30;2.33;;;17.20;79.90;;;;;;5050627;28;20025;-62
2022/06/01 09:08:38;;;;;;;4.47;3.00;;;17.30;79.80;;;;;;5048245;28;20028;-62
2022/06/01 09:11:12;;;;;;;3.95;2.85;;;17.20;78.20;;;;;;5042128;28;20117;-62
2022/06/01 09:14:02;;;;;;;6.10;3.08;;;17.30;78.00;;;;;;5050077;28;20420;-62
2022/06/01 09:16:37;;;;;;;4.03;2.60;;;17.30;77.80;;;;;;5042962;28;20021;-62
2022/06/01 09:19:04;;;;;;;5.20;2.63;;;17.30;77.60;;;;;;5039504;28;20048;-62
2022/06/01 09:24:27;;;;;;;3.30;2.45;;;17.20;77.40;;;;;;5038663;28;20074;-63
2022/06/01 09:26:58;;;;;;;2.42;2.10;;;17.30;77.50;;;;;;5049944;28;20021;-62
2022/06/01 09:29:36;;;;;;;5.20;2.83;;;17.40;76.60;;;;;;5045196;28;20025;-62
2022/06/01 09:32:07;;;;;;;3.55;2.50;;;17.50;76.80;;;;;;5039276;28;20026;-63
2022/06/01 09:34:38;;;;;;;2.47;2.00;;;17.60;75.70;;;;;;5033340;28;20026;-63
2022/06/01 09:37:14;;;;;;;3.97;2.40;;;17.80;75.60;;;;;;5045435;28;20096;-63
2022/06/01 09:39:51;;;;;;;2.63;1.70;;;17.80;75.00;;;;;;5031416;28;20020;-62
2022/06/01 09:42:25;;;;;;;3.28;2.00;;;17.90;75.00;;;;;;5035929;28;20021;-62
2022/06/01 09:44:52;;;;;;;3.38;2.15;;;17.90;73.90;;;;;;5034585;28;20144;-63
2022/06/01 09:47:28;;;;;;;2.75;1.60;;;18.00;72.80;;;;;;5045627;28;20424;-63
2022/06/01 09:49:57;;;;;;;1.42;1.08;;;18.10;71.60;;;;;;5037041;28;20107;-63
2022/06/01 09:52:57;;;;;;;2.88;1.35;;;18.20;71.10;;;;;;5049123;28;20185;-62
2022/06/01 09:55:24;;;;;;;2.15;1.38;;;18.40;70.00;;;;;;5047505;28;20037;-63
2022/06/01 09:58:05;;;;;;;1.80;1.10;;;18.30;69.60;;;;;;5048583;28;20043;-63
2022/06/01 10:06:31;;;;;;;3.97;3.10;;;17.80;68.70;;;;;;5049343;28;20063;-63
2022/06/01 10:09:13;;;;;;;4.68;2.78;;;17.20;73.40;;;;;;5043046;28;20477;-63
2022/06/01 10:11:45;;;;;;;3.67;2.40;;;16.80;75.90;;;;;;5039206;28;20021;-62
2022/06/01 10:14:32;;;;;;;4.13;1.83;;;16.40;78.10;;;;;;5049149;28;20492;-63
2022/06/01 10:17:21;;;;;;;3.17;1.83;;;15.80;79.60;;;;;;5046784;28;20025;-63
2022/06/01 10:20:06;;;;;;;4.57;2.42;;;15.30;82.50;;;;;;5058772;28;20028;-63
2022/06/01 10:22:44;;;;;;;3.97;1.77;;;15.00;85.50;;;;;;5047023;28;20076;-62
2022/06/01 10:25:11;;;;;;;3.08;1.65;;;15.00;86.40;;;;;;5046945;28;20104;-62
2022/06/01 10:28:12;;;;;;;2.20;1.77;;;15.10;86.50;;;;;;5045489;28;20059;-62
2022/06/01 10:30:40;;;;;;;8.90;2.42;;;15.30;85.80;;;;;;5046176;28;20057;-62
2022/06/01 10:33:20;;;;;;;2.10;1.83;;;15.40;87.50;;;;;;5046605;28;20056;-62
2022/06/01 10:35:49;;;;;;;3.55;2.45;;;15.50;87.00;;;;;;5045092;28;20027;-62
2022/06/01 10:38:23;;;;;;;3.97;2.90;;;15.60;85.30;;;;;;5030702;28;20036;-62
2022/06/01 10:41:12;;;;;;;3.72;3.22;;;15.70;86.70;;;;;;5030639;28;20036;-62
2022/06/01 10:43:47;;;;;;;4.70;3.03;;;16.00;85.50;;;;;;5030970;28;20037;-63
2022/06/01 10:46:37;;;;;;;4.10;2.92;;;16.00;85.00;;;;;;5037426;28;20033;-62
2022/06/01 10:49:27;;;;;;;3.60;3.22;;;16.30;85.60;;;;;;5038472;28;20058;-62
2022/06/01 10:52:03;;;;;;;4.15;3.47;;;16.40;84.80;;;;;;5033761;28;20098;-62
2022/06/01 10:54:44;;;;;;;2.55;2.35;;;16.40;83.80;;;;;;5032814;28;20025;-63
2022/06/01 10:57:16;;;;;;;3.53;2.60;;;16.40;85.30;;;;;;5037360;28;20369;-63
2022/06/01 10:59:42;;;;;;;3.90;2.95;;;16.40;84.70;;;;;;5031748;28;20113;-63
2022/06/01 11:02:20;;;;;;;3.25;2.95;;;16.40;85.10;;;;;;5032006;28;20101;-62
2022/06/01 11:05:25;;;;;;;5.10;3.15;;;16.50;84.60;;;;;;5038508;28;20021;-63
2022/06/01 11:08:17;;;;;;;3.47;3.05;;;16.70;83.40;;;;;;5036002;28;20021;-63
2022/06/01 11:11:05;;;;;;;3.90;3.50;;;17.00;82.20;;;;;;5032122;28;20413;-63
2022/06/01 11:13:46;;;;;;;4.50;3.30;;;17.20;79.50;;;;;;5033771;28;20024;-63
2022/06/01 11:16:33;;;;;;;5.03;3.00;;;17.30;80.00;;;;;;5049037;28;20082;-63
2022/06/01 11:19:07;;;;;;;6.60;3.97;;;17.20;79.70;;;;;;5047857;28;20033;-63
2022/06/01 11:21:49;;;;;;;3.75;2.83;;;17.30;80.00;;;;;;5053312;28;20079;-63
2022/06/01 11:24:35;;;;;;;3.83;2.88;;;17.10;81.00;;;;;;5038746;28;20429;-63
2022/06/01 11:27:13;;;;;;;3.10;2.80;;;17.00;80.90;;;;;;5043400;28;20028;-63
2022/06/01 11:29:51;;;;;;;6.85;3.70;;;16.90;81.60;;;;;;5051589;28;20473;-63
2022/06/01 11:32:21;;;;;;;4.85;3.05;;;16.90;81.50;;;;;;5048174;28;20057;-63
2022/06/01 11:35:30;;;;;;;3.80;3.15;;;16.90;81.50;;;;;;5049307;28;20380;-62
2022/06/01 11:37:59;;;;;;;3.30;2.97;;;17.00;81.00;;;;;;5047906;28;20109;-63
2022/06/01 11:40:37;;;;;;;2.83;2.63;;;17.00;81.50;;;;;;5047680;28;20021;-62
2022/06/01 11:43:31;;;;;;;3.85;2.95;;;17.10;81.20;;;;;;5050557;28;20037;-62
2022/06/01 11:46:08;;;;;;;3.28;2.55;;;17.20;80.50;;;;;;5045864;28;20507;-62
2022/06/01 11:48:37;;;;;;;3.72;2.67;;;17.30;80.20;;;;;;5053309;28;20040;-62
2022/06/01 11:51:19;;;;;;;4.47;2.60;;;17.50;80.00;;;;;;5052954;28;20037;-63
2022/06/01 11:53:54;;;;;;;4.90;2.90;;;17.60;79.10;;;;;;5062715;28;20060;-62
2022/06/01 11:56:30;;;;;;;4.47;2.90;;;17.70;78.60;;;;;;5046697;28;20033;-63
2022/06/01 11:58:58;;;;;;;4.18;2.88;;;17.80;78.40;;;;;;5047916;28;20389;-62
2022/06/01 12:01:46;;;;;;;3.00;2.60;;;17.90;77.80;;;;;;5049733;28;20025;-62
2022/06/01 12:04:36;;;;;;;3.00;2.55;;;18.00;77.80;;;;;;5050891;28;20049;-63
2022/06/01 12:07:19;;;;;;;4.15;2.55;;;18.10;77.60;;;;;;5050252;28;20040;-63
2022/06/01 12:09:50;;;;;;;2.78;1.98;;;18.20;77.40;;;;;;5049462;28;20033;-62
2022/06/01 12:12:23;;;;;;;4.80;1.35;;;18.20;76.30;;;;;;5050805;28;20507;-63
2022/06/01 12:14:56;;;;;;;1.00;0.47;;;18.20;75.00;;;;;;5050435;28;20047;-63
2022/06/01 12:17:34;;;;;;;1.13;0.50;;;18.20;72.70;;;;;;5041447;28;20029;-62
2022/06/01 12:20:31;;;;;;;0.73;0.30;;;18.30;71.00;;;;;;5034812;28;20021;-62
2022/06/01 12:29:04;;;;;;;0.80;0.30;;;18.80;65.10;;;;;;5043070;28;20082;-62
2022/06/01 12:31:31;;;;;;;0.82;0.43;;;18.90;64.90;;;;;;5033815;28;20017;-63
2022/06/01 12:34:18;;;;;;;0.68;0.40;;;19.00;63.90;;;;;;5034441;28;20026;-62
2022/06/01 12:36:46;;;;;;;3.08;1.45;;;19.10;63.90;;;;;;5047612;28;20056;-62
2022/06/01 12:39:27;;;;;;;0.90;0.50;;;19.30;62.40;;;;;;5034729;28;20128;-62
2022/06/01 12:42:09;;;;;;;0.98;0.40;;;19.50;62.00;;;;;;5041991;28;20029;-62
2022/06/01 12:44:35;;;;;;;0.85;0.43;;;19.60;61.80;;;;;;5033333;28;20046;-62
2022/06/01 12:47:01;;;;;;;0.65;0.40;;;19.60;60.50;;;;;;5044438;28;20067;-62
2022/06/01 12:49:32;;;;;;;0.85;0.50;;;19.70;60.20;;;;;;5037589;28;20087;-62
2022/06/01 12:52:04;;;;;;;1.63;0.60;;;19.70;59.30;;;;;;5034400;28;20493;-62
2022/06/01 12:54:29;;;;;;;0.43;0.30;;;19.90;59.00;;;;;;5047461;28;20143;-62
2022/06/01 12:56:55;;;;;;;0.40;0.30;;;20.10;59.00;;;;;;5034499;28;20123;-62
2022/06/01 12:59:20;;;;;;;1.02;0.30;;;20.20;58.60;;;;;;5032747;28;20021;-62
2022/06/01 13:01:50;;;;;;;0.93;0.47;;;20.20;58.30;;;;;;5033006;28;20030;-62
2022/06/01 13:04:24;;;;;;;0.80;0.20;;;20.30;57.60;;;;;;5040859;28;20029;-62
2022/06/01 13:06:51;;;;;;;1.75;0.40;;;20.30;57.10;;;;;;5053785;28;20431;-62
2022/06/01 13:09:26;;;;;;;1.27;0.30;;;20.40;56.40;;;;;;5053730;28;20035;-62
2022/06/01 13:12:00;;;;;;;0.55;0.40;;;20.50;55.40;;;;;;5034238;28;20155;-62
2022/06/01 13:14:28;;;;;;;0.47;0.30;;;20.60;55.20;;;;;;5034057;28;20032;-62
2022/06/01 13:17:08;;;;;;;0.28;0.20;;;20.80;55.70;;;;;;5043508;28;20024;-62
2022/06/01 13:19:34;;;;;;;0.55;0.30;;;20.90;53.40;;;;;;5053087;28;20032;-62
2022/06/01 13:22:21;;;;;;;0.50;0.25;;;20.80;53.60;;;;;;5053462;28;20025;-63
2022/06/01 13:24:59;;;;;;;1.30;0.40;;;20.80;53.70;;;;;;5033327;28;20155;-62